^^
TXWeather Station Historical Data
Daily Summary for January 25, 2022 Units:  Metric    English   Both
Daily Weekly Monthly Yearly Custom
  High: Low: Average:
Temperature: 15 °C 7.8 °C 11.1 °C
Dew Point: 11.1 °C 6.1 °C 8.4 °C
Humidity: 92% 74% 84%
Wind Speed: 29km/h 0km/h 10.1km/h
Wind Gust: 29km/h - -
Wind- - SE
Pressure: 1026 hPa 1012.4 hPa -
Precipitation: 0.25 mm    
Historical Graphs
 
 
Tabular Data for January 25, 2022
Time Temperature Dew Point Pressure Wind Wind Speed Wind Gust Humidity Rainfall Rate (Hourly) solar
00:04 8.3 °C 7.2 °C 1012.4 hPa NNE 8 km/h 8 km/h 91% 0 mm 0.00 W/m2
00:09 8.3 °C 7.2 °C 1012.4 hPa NNE 6.4 km/h 6.4 km/h 91% 0 mm 0.00 W/m2
00:14 8.3 °C 7.2 °C 1012.4 hPa NE 6.4 km/h 8 km/h 91% 0 mm 0.00 W/m2
00:19 8.3 °C 7.2 °C 1012.4 hPa NNE 4.8 km/h 6.4 km/h 91% 0 mm 0.00 W/m2
00:24 8.3 °C 7.2 °C 1012.4 hPa NNE 6.4 km/h 6.4 km/h 91% 0 mm 0.00 W/m2
00:29 8.3 °C 7.2 °C 1012.4 hPa NNE 3.2 km/h 6.4 km/h 91% 0 mm 0.00 W/m2
00:34 8.3 °C 7.2 °C 1012.4 hPa NNE 3.2 km/h 4.8 km/h 91% 0 mm 0.00 W/m2
00:39 8.3 °C 6.7 °C 1012.4 hPa NNE 4.8 km/h 4.8 km/h 91% 0 mm 0.00 W/m2
00:44 8.3 °C 6.7 °C 1012.4 hPa NE 3.2 km/h 3.2 km/h 91% 0 mm 0.00 W/m2
00:49 8.3 °C 6.7 °C 1012.4 hPa NE 3.2 km/h 4.8 km/h 91% 0 mm 0.00 W/m2
00:54 8.3 °C 6.7 °C 1012.4 hPa NE 3.2 km/h 3.2 km/h 91% 0 mm 0.00 W/m2
00:59 8.3 °C 6.7 °C 1012.4 hPa NE 3.2 km/h 3.2 km/h 91% 0 mm 0.00 W/m2
01:04 8.3 °C 6.7 °C 1012.4 hPa NE 3.2 km/h 3.2 km/h 91% 0 mm 0.00 W/m2
01:09 8.3 °C 6.7 °C 1012.4 hPa NE 1.6 km/h 3.2 km/h 91% 0 mm 0.00 W/m2
01:14 7.8 °C 6.7 °C 1012.4 hPa Calm     91% 0 mm 0.00 W/m2
01:19 7.8 °C 6.7 °C 1012.4 hPa NE 1.6 km/h 1.6 km/h 91% 0 mm 0.00 W/m2
01:24 7.8 °C 6.7 °C 1012.4 hPa NE 1.6 km/h 3.2 km/h 91% 0 mm 0.00 W/m2
01:29 7.8 °C 6.7 °C 1012.4 hPa NE 3.2 km/h 3.2 km/h 91% 0 mm 0.00 W/m2
01:34 7.8 °C 6.7 °C 1012.4 hPa NE 3.2 km/h 4.8 km/h 91% 0.25 mm 0.00 W/m2
01:39 7.8 °C 6.7 °C 1012.4 hPa NE 3.2 km/h 3.2 km/h 91% 0.25 mm 0.00 W/m2
01:44 7.8 °C 6.7 °C 1015.8 hPa NE 1.6 km/h 3.2 km/h 91% 0.25 mm 0.00 W/m2
01:49 8.3 °C 6.7 °C 1012.4 hPa NE 1.6 km/h 1.6 km/h 91% 0.25 mm 0.00 W/m2
01:54 8.3 °C 6.7 °C 1015.8 hPa Calm     91% 0.25 mm 0.00 W/m2
01:59 8.3 °C 6.7 °C 1015.8 hPa NE 4.8 km/h 4.8 km/h 91% 0.25 mm 0.00 W/m2
02:04 8.3 °C 6.7 °C 1015.8 hPa NW 6.4 km/h 6.4 km/h 91% 0.25 mm 0.00 W/m2
02:09 8.3 °C 6.7 °C 1015.8 hPa NNW 4.8 km/h 4.8 km/h 91% 0.25 mm 0.00 W/m2
02:14 8.3 °C 6.7 °C 1015.8 hPa North 4.8 km/h 4.8 km/h 91% 0.25 mm 0.00 W/m2
02:19 8.3 °C 6.7 °C 1015.8 hPa North 4.8 km/h 4.8 km/h 91% 0.25 mm 0.00 W/m2
02:24 8.3 °C 6.7 °C 1015.8 hPa North 1.6 km/h 1.6 km/h 91% 0.25 mm 0.00 W/m2
02:29 8.3 °C 6.7 °C 1015.8 hPa North 3.2 km/h 3.2 km/h 91% 0.25 mm 0.00 W/m2
02:34 8.3 °C 6.7 °C 1015.8 hPa Calm   1.6 km/h 91% 0.25 mm 0.00 W/m2
02:39 8.3 °C 6.7 °C 1015.8 hPa North 3.2 km/h 3.2 km/h 91% 0 mm 0.00 W/m2
02:44 8.3 °C 6.7 °C 1015.8 hPa North 4.8 km/h 4.8 km/h 91% 0 mm 0.00 W/m2
02:49 8.3 °C 7.2 °C 1015.8 hPa North 1.6 km/h 4.8 km/h 92% 0 mm 0.00 W/m2
02:54 8.3 °C 7.2 °C 1015.8 hPa North 3.2 km/h 3.2 km/h 91% 0 mm 0.00 W/m2
02:59 8.3 °C 7.2 °C 1015.8 hPa North 3.2 km/h 3.2 km/h 91% 0 mm 0.00 W/m2
03:04 8.3 °C 7.2 °C 1015.8 hPa North 3.2 km/h 3.2 km/h 91% 0 mm 0.00 W/m2
03:09 8.3 °C 7.2 °C 1015.8 hPa North 1.6 km/h 3.2 km/h 92% 0 mm 0.00 W/m2
03:14 8.3 °C 7.2 °C 1015.8 hPa North 3.2 km/h 3.2 km/h 92% 0 mm 0.00 W/m2
03:19 8.3 °C 7.2 °C 1015.8 hPa NNW 4.8 km/h 4.8 km/h 91% 0 mm 0.00 W/m2
03:24 8.3 °C 7.2 °C 1015.8 hPa NNW 4.8 km/h 6.4 km/h 91% 0 mm 0.00 W/m2
03:29 8.3 °C 7.2 °C 1015.8 hPa NW 4.8 km/h 4.8 km/h 91% 0 mm 0.00 W/m2
03:34 8.3 °C 7.2 °C 1015.8 hPa North 8 km/h 8 km/h 91% 0 mm 0.00 W/m2
03:39 8.3 °C 7.2 °C 1015.8 hPa NNW 6.4 km/h 8 km/h 91% 0 mm 0.00 W/m2
03:44 8.3 °C 7.2 °C 1015.8 hPa North 6.4 km/h 8 km/h 91% 0 mm 0.00 W/m2
03:49 8.9 °C 7.2 °C 1015.8 hPa North 9.7 km/h 9.7 km/h 91% 0 mm 0.00 W/m2
03:54 8.9 °C 7.2 °C 1015.8 hPa North 9.7 km/h 9.7 km/h 91% 0 mm 0.00 W/m2
03:59 8.9 °C 7.2 °C 1015.8 hPa North 6.4 km/h 6.4 km/h 91% 0 mm 0.00 W/m2
04:04 8.9 °C 7.2 °C 1015.8 hPa North 6.4 km/h 6.4 km/h 91% 0 mm 0.00 W/m2
04:09 8.9 °C 7.2 °C 1015.8 hPa North 8 km/h 8 km/h 91% 0 mm 0.00 W/m2
04:14 8.9 °C 7.2 °C 1015.8 hPa North 8 km/h 8 km/h 92% 0 mm 0.00 W/m2
04:19 8.9 °C 7.2 °C 1015.8 hPa NNW 9.7 km/h 9.7 km/h 91% 0 mm 0.00 W/m2
04:24 8.9 °C 7.2 °C 1015.8 hPa North 8 km/h 8 km/h 92% 0 mm 0.00 W/m2
04:29 8.9 °C 7.8 °C 1015.8 hPa North 6.4 km/h 6.4 km/h 92% 0 mm 0.00 W/m2
04:34 8.9 °C 7.8 °C 1015.8 hPa North 8 km/h 8 km/h 92% 0 mm 0.00 W/m2
04:39 8.9 °C 7.8 °C 1015.8 hPa North 6.4 km/h 8 km/h 92% 0 mm 0.00 W/m2
04:44 8.9 °C 7.8 °C 1015.8 hPa NNW 8 km/h 12.9 km/h 92% 0 mm 0.00 W/m2
04:49 8.9 °C 7.8 °C 1015.8 hPa NNW 8 km/h 8 km/h 92% 0 mm 0.00 W/m2
04:54 8.9 °C 7.8 °C 1015.8 hPa North 6.4 km/h 6.4 km/h 92% 0 mm 0.00 W/m2
04:59 8.9 °C 7.8 °C 1015.8 hPa North 8 km/h 8 km/h 92% 0 mm 0.00 W/m2
05:04 8.9 °C 7.8 °C 1015.8 hPa NNE 4.8 km/h 4.8 km/h 92% 0 mm 0.00 W/m2
05:09 8.9 °C 7.8 °C 1015.8 hPa NNE 1.6 km/h 3.2 km/h 92% 0 mm 0.00 W/m2
05:14 8.9 °C 7.8 °C 1015.8 hPa North 4.8 km/h 4.8 km/h 92% 0 mm 0.00 W/m2
05:19 8.9 °C 7.8 °C 1015.8 hPa NNW 4.8 km/h 4.8 km/h 92% 0 mm 0.00 W/m2
05:24 8.9 °C 7.8 °C 1015.8 hPa NW 3.2 km/h 3.2 km/h 92% 0 mm 0.00 W/m2
05:29 8.9 °C 7.8 °C 1015.8 hPa NW 4.8 km/h 4.8 km/h 92% 0 mm 0.00 W/m2
05:34 8.9 °C 7.8 °C 1015.8 hPa NW 4.8 km/h 6.4 km/h 92% 0 mm 0.00 W/m2
05:39 8.9 °C 7.8 °C 1015.8 hPa NW 4.8 km/h 4.8 km/h 92% 0 mm 0.00 W/m2
05:44 8.9 °C 7.8 °C 1015.8 hPa NNW 1.6 km/h 4.8 km/h 92% 0 mm 0.00 W/m2
05:49 8.9 °C 7.8 °C 1015.8 hPa NNW 1.6 km/h 1.6 km/h 92% 0 mm 0.00 W/m2
05:54 8.9 °C 7.8 °C 1015.8 hPa WSW 3.2 km/h 3.2 km/h 92% 0 mm 0.00 W/m2
05:59 8.9 °C 7.8 °C 1015.8 hPa WSW 4.8 km/h 4.8 km/h 92% 0 mm 0.00 W/m2
06:04 8.9 °C 7.8 °C 1015.8 hPa WNW 3.2 km/h 4.8 km/h 92% 0 mm 0.00 W/m2
06:09 8.9 °C 7.8 °C 1015.8 hPa West 3.2 km/h 4.8 km/h 92% 0 mm 0.00 W/m2
06:14 8.9 °C 7.8 °C 1015.8 hPa WSW 6.4 km/h 6.4 km/h 92% 0 mm 0.00 W/m2
06:19 8.9 °C 7.8 °C 1015.8 hPa WSW 4.8 km/h 6.4 km/h 92% 0 mm 0.00 W/m2
06:24 8.9 °C 7.8 °C 1015.8 hPa WSW 4.8 km/h 4.8 km/h 92% 0 mm 0.00 W/m2
06:29 8.9 °C 7.8 °C 1015.8 hPa West 3.2 km/h 4.8 km/h 92% 0 mm 0.00 W/m2
06:34 8.9 °C 7.8 °C 1015.8 hPa NW 4.8 km/h 4.8 km/h 91% 0 mm 0.00 W/m2
06:39 8.9 °C 7.8 °C 1015.8 hPa WNW 3.2 km/h 6.4 km/h 91% 0 mm 0.00 W/m2
06:44 8.9 °C 7.8 °C 1015.8 hPa NW 6.4 km/h 6.4 km/h 92% 0 mm 0.00 W/m2
06:49 8.9 °C 7.8 °C 1015.8 hPa WNW 6.4 km/h 6.4 km/h 92% 0 mm 0.00 W/m2
06:54 8.9 °C 7.8 °C 1015.8 hPa NW 11.3 km/h 11.3 km/h 92% 0 mm 0.00 W/m2
06:59 8.9 °C 7.8 °C 1015.8 hPa NW 9.7 km/h 12.9 km/h 92% 0 mm 0.00 W/m2
07:04 8.9 °C 7.8 °C 1015.8 hPa NW 11.3 km/h 12.9 km/h 92% 0 mm 0.00 W/m2
07:09 8.9 °C 7.8 °C 1015.8 hPa NW 9.7 km/h 11.3 km/h 92% 0 mm 0.00 W/m2
07:14 8.9 °C 7.8 °C 1015.8 hPa NW 11.3 km/h 12.9 km/h 92% 0 mm 0.00 W/m2
07:19 8.9 °C 7.8 °C 1015.8 hPa NW 11.3 km/h 12.9 km/h 92% 0 mm 0.00 W/m2
07:24 8.9 °C 7.8 °C 1015.8 hPa WNW 14.5 km/h 16.1 km/h 92% 0 mm 0.00 W/m2
07:29 8.9 °C 7.8 °C 1019.2 hPa WNW 11.3 km/h 12.9 km/h 92% 0 mm 5.00 W/m2
07:34 8.9 °C 7.8 °C 1019.2 hPa NW 9.7 km/h 12.9 km/h 92% 0 mm 7.00 W/m2
07:39 8.9 °C 7.8 °C 1019.2 hPa NW 9.7 km/h 12.9 km/h 92% 0 mm 9.00 W/m2
07:44 8.9 °C 7.8 °C 1019.2 hPa WNW 6.4 km/h 8 km/h 92% 0 mm 16.00 W/m2
07:49 8.9 °C 7.8 °C 1019.2 hPa NW 8 km/h 9.7 km/h 92% 0 mm 21.00 W/m2
07:54 8.9 °C 7.8 °C 1019.2 hPa NW 8 km/h 9.7 km/h 92% 0 mm 35.00 W/m2
07:59 8.9 °C 7.8 °C 1019.2 hPa NW 8 km/h 11.3 km/h 92% 0 mm 44.00 W/m2
08:04 8.9 °C 7.8 °C 1019.2 hPa NW 8 km/h 9.7 km/h 92% 0 mm 47.00 W/m2
08:09 8.9 °C 7.8 °C 1019.2 hPa NW 11.3 km/h 14.5 km/h 92% 0 mm 63.00 W/m2
08:14 9.4 °C 7.8 °C 1019.2 hPa NW 11.3 km/h 16.1 km/h 92% 0 mm 63.00 W/m2
08:19 9.4 °C 7.8 °C 1019.2 hPa NNW 11.3 km/h 11.3 km/h 92% 0 mm 74.00 W/m2
08:24 9.4 °C 8.3 °C 1019.2 hPa NW 9.7 km/h 14.5 km/h 92% 0 mm 90.00 W/m2
08:29 9.4 °C 8.3 °C 1019.2 hPa NNW 12.9 km/h 12.9 km/h 92% 0 mm 120.00 W/m2
08:34 9.4 °C 8.3 °C 1019.2 hPa NNW 8 km/h 12.9 km/h 92% 0 mm 144.00 W/m2
08:39 10 °C 8.3 °C 1019.2 hPa NW 12.9 km/h 12.9 km/h 92% 0 mm 107.00 W/m2
08:44 10 °C 8.9 °C 1019.2 hPa NW 12.9 km/h 12.9 km/h 92% 0 mm 109.00 W/m2
08:49 10 °C 8.9 °C 1019.2 hPa NNW 14.5 km/h 14.5 km/h 92% 0 mm 86.00 W/m2
08:54 10 °C 8.9 °C 1019.2 hPa NW 11.3 km/h 11.3 km/h 92% 0 mm 88.00 W/m2
08:59 10 °C 8.9 °C 1019.2 hPa NNW 14.5 km/h 16.1 km/h 92% 0 mm 98.00 W/m2
09:04 10 °C 8.9 °C 1019.2 hPa NNW 11.3 km/h 16.1 km/h 92% 0 mm 123.00 W/m2
09:09 10 °C 8.9 °C 1019.2 hPa NNW 12.9 km/h 12.9 km/h 92% 0 mm 109.00 W/m2
09:14 10.6 °C 8.9 °C 1019.2 hPa North 12.9 km/h 16.1 km/h 92% 0 mm 134.00 W/m2
09:19 10.6 °C 9.4 °C 1019.2 hPa North 8 km/h 14.5 km/h 92% 0 mm 436.00 W/m2
09:24 10.6 °C 9.4 °C 1019.2 hPa North 9.7 km/h 14.5 km/h 92% 0 mm 253.00 W/m2
09:29 11.1 °C 10 °C 1019.2 hPa North 16.1 km/h 16.1 km/h 92% 0 mm 355.00 W/m2
09:34 11.1 °C 10 °C 1019.2 hPa NNW 16.1 km/h 19.3 km/h 92% 0 mm 448.00 W/m2
09:39 11.1 °C 10 °C 1019.2 hPa North 20.9 km/h 25.7 km/h 92% 0 mm 193.00 W/m2
09:44 11.7 °C 10 °C 1019.2 hPa North 20.9 km/h 25.7 km/h 92% 0 mm 200.00 W/m2
09:49 11.7 °C 10 °C 1019.2 hPa NNE 20.9 km/h 20.9 km/h 92% 0 mm 188.00 W/m2
09:54 11.7 °C 10.6 °C 1019.2 hPa North 17.7 km/h 17.7 km/h 92% 0 mm 213.00 W/m2
09:59 11.7 °C 10.6 °C 1019.2 hPa North 22.5 km/h 24.1 km/h 91% 0 mm 260.00 W/m2
10:04 11.7 °C 10.6 °C 1019.2 hPa North 17.7 km/h 17.7 km/h 91% 0 mm 292.00 W/m2
10:09 12.2 °C 10.6 °C 1019.2 hPa NNE 24.1 km/h 24.1 km/h 91% 0 mm 315.00 W/m2
10:14 12.2 °C 10.6 °C 1019.2 hPa North 25.7 km/h 25.7 km/h 90% 0 mm 302.00 W/m2
10:19 12.8 °C 11.1 °C 1019.2 hPa North 19.3 km/h 19.3 km/h 90% 0 mm 281.00 W/m2
10:24 12.8 °C 11.1 °C 1019.2 hPa North 19.3 km/h 20.9 km/h 89% 0 mm 264.00 W/m2
10:29 12.8 °C 11.1 °C 1019.2 hPa NNE 29 km/h 29 km/h 88% 0 mm 251.00 W/m2
10:34 12.8 °C 10.6 °C 1019.2 hPa NNE 12.9 km/h 20.9 km/h 87% 0 mm 279.00 W/m2
10:39 13.3 °C 11.1 °C 1019.2 hPa North 19.3 km/h 22.5 km/h 87% 0 mm 304.00 W/m2
10:44 13.3 °C 10.6 °C 1019.2 hPa NNE 19.3 km/h 22.5 km/h 85% 0 mm 223.00 W/m2
10:49 13.3 °C 10.6 °C 1019.2 hPa NNE 24.1 km/h 24.1 km/h 85% 0 mm 216.00 W/m2
10:54 13.3 °C 10.6 °C 1019.2 hPa NNE 19.3 km/h 20.9 km/h 84% 0 mm 225.00 W/m2
10:59 13.3 °C 10.6 °C 1019.2 hPa NNE 20.9 km/h 20.9 km/h 83% 0 mm 304.00 W/m2
11:04 13.3 °C 10.6 °C 1019.2 hPa NNE 19.3 km/h 20.9 km/h 83% 0 mm 348.00 W/m2
11:09 13.3 °C 10.6 °C 1019.2 hPa NNE 19.3 km/h 19.3 km/h 82% 0 mm 397.00 W/m2
11:14 13.3 °C 10 °C 1019.2 hPa NNE 17.7 km/h 17.7 km/h 81% 0 mm 397.00 W/m2
11:19 13.9 °C 10.6 °C 1019.2 hPa NNE 19.3 km/h 19.3 km/h 81% 0 mm 930.00 W/m2
11:24 13.9 °C 10.6 °C 1019.2 hPa NNE 17.7 km/h 19.3 km/h 80% 0 mm 448.00 W/m2
11:29 13.9 °C 10.6 °C 1019.2 hPa NNE 16.1 km/h 19.3 km/h 78% 0 mm 206.00 W/m2
11:34 13.9 °C 10 °C 1019.2 hPa NNE 17.7 km/h 29 km/h 77% 0 mm 200.00 W/m2
11:39 13.9 °C 10 °C 1019.2 hPa NNE 14.5 km/h 17.7 km/h 77% 0 mm 357.00 W/m2
11:44 13.9 °C 10 °C 1019.2 hPa NNE 16.1 km/h 16.1 km/h 78% 0 mm 861.00 W/m2
11:49 15 °C 11.1 °C 1019.2 hPa NNE 14.5 km/h 14.5 km/h 79% 0 mm 766.00 W/m2
11:54 15 °C 11.1 °C 1019.2 hPa NE 16.1 km/h 16.1 km/h 78% 0 mm 659.00 W/m2
11:59 15 °C 10.6 °C 1019.2 hPa NNE 19.3 km/h 19.3 km/h 75% 0 mm 204.00 W/m2
12:04 14.4 °C 10 °C 1019.2 hPa NNE 16.1 km/h 19.3 km/h 74% 0 mm 134.00 W/m2
12:09 14.4 °C 9.4 °C 1019.2 hPa NE 14.5 km/h 17.7 km/h 75% 0 mm 169.00 W/m2
12:14 13.9 °C 9.4 °C 1019.2 hPa NE 12.9 km/h 19.3 km/h 76% 0 mm 169.00 W/m2
12:19 13.9 °C 9.4 °C 1019.2 hPa NE 16.1 km/h 16.1 km/h 76% 0 mm 197.00 W/m2
12:24 13.9 °C 9.4 °C 1019.2 hPa NNE 12.9 km/h 17.7 km/h 76% 0 mm 341.00 W/m2
12:29 13.9 °C 9.4 °C 1019.2 hPa NE 11.3 km/h 17.7 km/h 76% 0 mm 359.00 W/m2
12:34 13.9 °C 10 °C 1019.2 hPa NE 17.7 km/h 17.7 km/h 76% 0 mm 341.00 W/m2
12:39 13.9 °C 10 °C 1019.2 hPa NNE 20.9 km/h 20.9 km/h 76% 0 mm 236.00 W/m2
12:44 13.9 °C 9.4 °C 1019.2 hPa NNE 19.3 km/h 19.3 km/h 75% 0 mm 211.00 W/m2
12:49 13.9 °C 9.4 °C 1019.2 hPa NNE 17.7 km/h 19.3 km/h 75% 0 mm 158.00 W/m2
12:54 13.9 °C 9.4 °C 1019.2 hPa North 16.1 km/h 17.7 km/h 75% 0 mm 130.00 W/m2
12:59 13.9 °C 9.4 °C 1019.2 hPa NNE 11.3 km/h 14.5 km/h 76% 0 mm 156.00 W/m2
13:04 13.9 °C 9.4 °C 1019.2 hPa NNE 22.5 km/h 22.5 km/h 76% 0 mm 158.00 W/m2
13:09 13.9 °C 9.4 °C 1019.2 hPa NNE 16.1 km/h 22.5 km/h 76% 0 mm 162.00 W/m2
13:14 13.9 °C 9.4 °C 1019.2 hPa NNE 16.1 km/h 16.1 km/h 76% 0 mm 169.00 W/m2
13:19 13.3 °C 9.4 °C 1019.2 hPa NNE 11.3 km/h 17.7 km/h 77% 0 mm 169.00 W/m2
13:24 13.9 °C 9.4 °C 1019.2 hPa NE 8 km/h 9.7 km/h 77% 0 mm 153.00 W/m2
13:29 13.9 °C 9.4 °C 1019.2 hPa NE 9.7 km/h 12.9 km/h 77% 0 mm 260.00 W/m2
13:34 13.9 °C 9.4 °C 1019.2 hPa NNE 17.7 km/h 19.3 km/h 76% 0 mm 260.00 W/m2
13:39 13.9 °C 9.4 °C 1019.2 hPa NNE 16.1 km/h 19.3 km/h 76% 0 mm 165.00 W/m2
13:44 13.9 °C 9.4 °C 1019.2 hPa NNE 14.5 km/h 17.7 km/h 76% 0 mm 146.00 W/m2
13:49 13.9 °C 9.4 °C 1019.2 hPa NNE 16.1 km/h 17.7 km/h 77% 0 mm 188.00 W/m2
13:54 13.9 °C 10 °C 1019.2 hPa NNE 8 km/h 17.7 km/h 77% 0 mm 204.00 W/m2
13:59 13.9 °C 10 °C 1019.2 hPa NNE 17.7 km/h 17.7 km/h 77% 0 mm 207.00 W/m2
14:04 13.9 °C 9.4 °C 1019.2 hPa North 14.5 km/h 16.1 km/h 76% 0 mm 241.00 W/m2
14:09 13.9 °C 9.4 °C 1019.2 hPa NNE 11.3 km/h 16.1 km/h 76% 0 mm 230.00 W/m2
14:14 13.9 °C 9.4 °C 1019.2 hPa NNE 14.5 km/h 14.5 km/h 76% 0 mm 195.00 W/m2
14:19 13.9 °C 9.4 °C 1019.2 hPa North 16.1 km/h 16.1 km/h 76% 0 mm 207.00 W/m2
14:24 13.9 °C 10 °C 1019.2 hPa North 16.1 km/h 16.1 km/h 76% 0 mm 206.00 W/m2
14:29 13.9 °C 10 °C 1019.2 hPa NNE 14.5 km/h 16.1 km/h 76% 0 mm 209.00 W/m2
14:34 13.9 °C 10 °C 1019.2 hPa North 14.5 km/h 14.5 km/h 76% 0 mm 234.00 W/m2
14:39 13.9 °C 10 °C 1019.2 hPa North 16.1 km/h 16.1 km/h 76% 0 mm 285.00 W/m2
14:44 13.9 °C 10 °C 1019.2 hPa NNE 12.9 km/h 14.5 km/h 76% 0 mm 248.00 W/m2
14:49 13.9 °C 10 °C 1019.2 hPa North 16.1 km/h 16.1 km/h 76% 0 mm 181.00 W/m2
14:54 13.9 °C 10 °C 1019.2 hPa North 16.1 km/h 16.1 km/h 75% 0 mm 158.00 W/m2
14:59 13.9 °C 10 °C 1019.2 hPa North 12.9 km/h 14.5 km/h 75% 0 mm 141.00 W/m2
15:04 13.9 °C 9.4 °C 1019.2 hPa NNE 14.5 km/h 16.1 km/h 75% 0 mm 158.00 W/m2
15:09 13.9 °C 9.4 °C 1019.2 hPa North 12.9 km/h 12.9 km/h 75% 0 mm 135.00 W/m2
15:14 13.9 °C 9.4 °C 1019.2 hPa North 14.5 km/h 14.5 km/h 75% 0 mm 137.00 W/m2
15:19 13.9 °C 9.4 °C 1019.2 hPa North 14.5 km/h 14.5 km/h 75% 0 mm 142.00 W/m2
15:24 13.9 °C 9.4 °C 1019.2 hPa North 11.3 km/h 14.5 km/h 75% 0 mm 125.00 W/m2
15:29 13.9 °C 9.4 °C 1019.2 hPa NNE 11.3 km/h 12.9 km/h 75% 0 mm 109.00 W/m2
15:34 13.9 °C 9.4 °C 1019.2 hPa North 14.5 km/h 14.5 km/h 75% 0 mm 113.00 W/m2
15:39 13.9 °C 9.4 °C 1019.2 hPa North 12.9 km/h 12.9 km/h 75% 0 mm 132.00 W/m2
15:44 13.9 °C 9.4 °C 1019.2 hPa North 14.5 km/h 14.5 km/h 75% 0 mm 132.00 W/m2
15:49 13.9 °C 9.4 °C 1019.2 hPa North 12.9 km/h 12.9 km/h 75% 0 mm 107.00 W/m2
15:54 13.9 °C 9.4 °C 1019.2 hPa NNE 9.7 km/h 12.9 km/h 75% 0 mm 107.00 W/m2
15:59 13.9 °C 9.4 °C 1019.2 hPa NNE 12.9 km/h 14.5 km/h 75% 0 mm 107.00 W/m2
16:04 13.9 °C 9.4 °C 1019.2 hPa North 8 km/h 14.5 km/h 75% 0 mm 100.00 W/m2
16:09 13.9 °C 9.4 °C 1019.2 hPa North 8 km/h 11.3 km/h 75% 0 mm 95.00 W/m2
16:14 13.9 °C 9.4 °C 1019.2 hPa NNW 12.9 km/h 12.9 km/h 75% 0 mm 91.00 W/m2
16:19 13.9 °C 9.4 °C 1019.2 hPa North 8 km/h 12.9 km/h 75% 0 mm 67.00 W/m2
16:24 13.9 °C 9.4 °C 1019.2 hPa North 12.9 km/h 14.5 km/h 75% 0 mm 69.00 W/m2
16:29 13.9 °C 9.4 °C 1019.2 hPa North 12.9 km/h 14.5 km/h 75% 0 mm 65.00 W/m2
16:34 13.9 °C 9.4 °C 1019.2 hPa North 12.9 km/h 14.5 km/h 76% 0 mm 65.00 W/m2
16:39 13.9 °C 9.4 °C 1019.2 hPa North 16.1 km/h 17.7 km/h 76% 0 mm 53.00 W/m2
16:44 13.3 °C 9.4 °C 1019.2 hPa North 16.1 km/h 16.1 km/h 76% 0 mm 49.00 W/m2
16:49 13.3 °C 9.4 °C 1019.2 hPa North 11.3 km/h 14.5 km/h 76% 0 mm 39.00 W/m2
16:54 13.3 °C 9.4 °C 1019.2 hPa North 12.9 km/h 14.5 km/h 76% 0 mm 35.00 W/m2
16:59 13.3 °C 9.4 °C 1019.2 hPa North 12.9 km/h 14.5 km/h 76% 0 mm 33.00 W/m2
17:04 13.3 °C 8.9 °C 1019.2 hPa NNE 12.9 km/h 16.1 km/h 76% 0 mm 30.00 W/m2
17:09 13.3 °C 9.4 °C 1019.2 hPa North 17.7 km/h 17.7 km/h 77% 0 mm 23.00 W/m2
17:14 13.3 °C 9.4 °C 1019.2 hPa North 12.9 km/h 17.7 km/h 77% 0 mm 21.00 W/m2
17:19 13.3 °C 9.4 °C 1019.2 hPa NNE 16.1 km/h 16.1 km/h 77% 0 mm 18.00 W/m2
17:24 12.8 °C 8.9 °C 1019.2 hPa North 12.9 km/h 16.1 km/h 77% 0 mm 14.00 W/m2
17:29 12.8 °C 8.9 °C 1019.2 hPa NNE 12.9 km/h 14.5 km/h 77% 0 mm 11.00 W/m2
17:34 12.8 °C 8.9 °C 1019.2 hPa North 12.9 km/h 14.5 km/h 77% 0 mm 7.00 W/m2
17:39 12.8 °C 8.9 °C 1019.2 hPa NNE 8 km/h 12.9 km/h 78% 0 mm 5.00 W/m2
17:44 12.8 °C 8.9 °C 1019.2 hPa NNE 17.7 km/h 17.7 km/h 78% 0 mm 0.00 W/m2
17:49 12.8 °C 8.9 °C 1019.2 hPa NE 8 km/h 16.1 km/h 78% 0 mm 0.00 W/m2
17:54 12.8 °C 8.9 °C 1019.2 hPa NE 14.5 km/h 16.1 km/h 78% 0 mm 0.00 W/m2
17:59 12.8 °C 8.9 °C 1019.2 hPa NNE 12.9 km/h 14.5 km/h 78% 0 mm 0.00 W/m2
18:04 12.8 °C 8.9 °C 1019.2 hPa NNE 12.9 km/h 14.5 km/h 78% 0 mm 0.00 W/m2
18:09 12.8 °C 8.9 °C 1019.2 hPa NNE 12.9 km/h 14.5 km/h 79% 0 mm 0.00 W/m2
18:14 12.8 °C 8.9 °C 1019.2 hPa North 16.1 km/h 19.3 km/h 79% 0 mm 0.00 W/m2
18:19 12.8 °C 8.9 °C 1019.2 hPa NNE 17.7 km/h 19.3 km/h 79% 0 mm 0.00 W/m2
18:24 12.8 °C 8.9 °C 1019.2 hPa NNE 17.7 km/h 17.7 km/h 79% 0 mm 0.00 W/m2
18:29 12.2 °C 8.9 °C 1022.6 hPa NNE 22.5 km/h 22.5 km/h 79% 0 mm 0.00 W/m2
18:34 12.2 °C 8.9 °C 1019.2 hPa NNE 11.3 km/h 12.9 km/h 79% 0 mm 0.00 W/m2
18:39 12.2 °C 8.9 °C 1019.2 hPa NE 12.9 km/h 14.5 km/h 79% 0 mm 0.00 W/m2
18:44 12.2 °C 8.9 °C 1022.6 hPa NNE 19.3 km/h 19.3 km/h 79% 0 mm 0.00 W/m2
18:49 12.2 °C 8.9 °C 1022.6 hPa NNE 12.9 km/h 19.3 km/h 79% 0 mm 0.00 W/m2
18:54 12.2 °C 8.9 °C 1022.6 hPa NNE 16.1 km/h 17.7 km/h 79% 0 mm 0.00 W/m2
18:59 12.2 °C 8.9 °C 1022.6 hPa NNE 8 km/h 16.1 km/h 79% 0 mm 0.00 W/m2
19:04 12.2 °C 8.9 °C 1022.6 hPa NNE 14.5 km/h 14.5 km/h 79% 0 mm 0.00 W/m2
19:09 12.2 °C 8.9 °C 1022.6 hPa NE 20.9 km/h 20.9 km/h 79% 0 mm 0.00 W/m2
19:14 12.2 °C 8.9 °C 1022.6 hPa NNE 11.3 km/h 17.7 km/h 79% 0 mm 0.00 W/m2
19:19 12.2 °C 8.9 °C 1022.6 hPa NE 11.3 km/h 11.3 km/h 79% 0 mm 0.00 W/m2
19:24 12.2 °C 8.3 °C 1022.6 hPa NE 8 km/h 8 km/h 79% 0 mm 0.00 W/m2
19:29 12.2 °C 8.3 °C 1022.6 hPa ENE 12.9 km/h 12.9 km/h 79% 0 mm 0.00 W/m2
19:34 11.7 °C 8.3 °C 1022.6 hPa NE 8 km/h 9.7 km/h 79% 0 mm 0.00 W/m2
19:39 11.7 °C 8.3 °C 1022.6 hPa NE 6.4 km/h 9.7 km/h 79% 0 mm 0.00 W/m2
19:44 11.7 °C 8.3 °C 1022.6 hPa NE 9.7 km/h 9.7 km/h 79% 0 mm 0.00 W/m2
19:49 11.7 °C 8.3 °C 1022.6 hPa NE 6.4 km/h 9.7 km/h 78% 0 mm 0.00 W/m2
19:54 11.7 °C 8.3 °C 1022.6 hPa ENE 4.8 km/h 4.8 km/h 78% 0 mm 0.00 W/m2
19:59 11.7 °C 8.3 °C 1022.6 hPa NE 9.7 km/h 9.7 km/h 78% 0 mm 0.00 W/m2
20:04 11.7 °C 8.3 °C 1022.6 hPa NE 9.7 km/h 9.7 km/h 78% 0 mm 0.00 W/m2
20:09 11.7 °C 8.3 °C 1022.6 hPa NE 12.9 km/h 14.5 km/h 78% 0 mm 0.00 W/m2
20:14 11.7 °C 8.3 °C 1022.6 hPa NE 14.5 km/h 14.5 km/h 78% 0 mm 0.00 W/m2
20:19 11.7 °C 8.3 °C 1022.6 hPa NE 11.3 km/h 11.3 km/h 78% 0 mm 0.00 W/m2
20:24 11.7 °C 8.3 °C 1022.6 hPa NE 8 km/h 11.3 km/h 78% 0 mm 0.00 W/m2
20:29 11.7 °C 8.3 °C 1022.6 hPa NE 14.5 km/h 16.1 km/h 78% 0 mm 0.00 W/m2
20:34 11.7 °C 8.3 °C 1022.6 hPa NNE 16.1 km/h 16.1 km/h 78% 0 mm 0.00 W/m2
20:39 11.7 °C 8.3 °C 1022.6 hPa NNE 6.4 km/h 6.4 km/h 78% 0 mm 0.00 W/m2
20:44 11.7 °C 8.3 °C 1022.6 hPa NNE 9.7 km/h 9.7 km/h 78% 0 mm 0.00 W/m2
20:49 11.7 °C 8.3 °C 1022.6 hPa NE 6.4 km/h 8 km/h 78% 0 mm 0.00 W/m2
20:54 11.7 °C 8.3 °C 1022.6 hPa NE 6.4 km/h 8 km/h 78% 0 mm 0.00 W/m2
20:59 11.7 °C 8.3 °C 1022.6 hPa NNE 12.9 km/h 12.9 km/h 78% 0 mm 0.00 W/m2
21:04 11.7 °C 8.3 °C 1022.6 hPa NNE 9.7 km/h 9.7 km/h 78% 0 mm 0.00 W/m2
21:09 11.7 °C 8.3 °C 1022.6 hPa NNE 6.4 km/h 8 km/h 79% 0 mm 0.00 W/m2
21:14 11.7 °C 8.3 °C 1022.6 hPa NNE 8 km/h 8 km/h 79% 0 mm 0.00 W/m2
21:19 11.7 °C 8.3 °C 1022.6 hPa NNE 6.4 km/h 8 km/h 79% 0 mm 0.00 W/m2
21:24 11.7 °C 8.3 °C 1022.6 hPa NNE 6.4 km/h 6.4 km/h 79% 0 mm 0.00 W/m2
21:29 11.7 °C 8.3 °C 1022.6 hPa NNE 4.8 km/h 6.4 km/h 79% 0 mm 0.00 W/m2
21:34 11.7 °C 7.8 °C 1022.6 hPa NNE 4.8 km/h 6.4 km/h 79% 0 mm 0.00 W/m2
21:39 11.7 °C 7.8 °C 1022.6 hPa NNE 4.8 km/h 6.4 km/h 79% 0 mm 0.00 W/m2
21:44 11.1 °C 7.8 °C 1022.6 hPa NNE 4.8 km/h 4.8 km/h 79% 0 mm 0.00 W/m2
21:49 11.1 °C 7.8 °C 1022.6 hPa NNE 4.8 km/h 4.8 km/h 80% 0 mm 0.00 W/m2
21:54 11.1 °C 7.8 °C 1022.6 hPa NNE 4.8 km/h 6.4 km/h 80% 0 mm 0.00 W/m2
21:59 11.1 °C 7.8 °C 1022.6 hPa NNE 4.8 km/h 4.8 km/h 80% 0 mm 0.00 W/m2
22:04 10.6 °C 7.8 °C 1022.6 hPa NNE 3.2 km/h 4.8 km/h 80% 0 mm 0.00 W/m2
22:09 10.6 °C 7.2 °C 1022.6 hPa NNE 3.2 km/h 3.2 km/h 80% 0 mm 0.00 W/m2
22:14 10.6 °C 7.2 °C 1022.6 hPa NNE 1.6 km/h 3.2 km/h 80% 0 mm 0.00 W/m2
22:19 10.6 °C 7.2 °C 1022.6 hPa NNE 3.2 km/h 3.2 km/h 81% 0 mm 0.00 W/m2
22:24 10.6 °C 7.2 °C 1022.6 hPa NNE 3.2 km/h 3.2 km/h 81% 0 mm 0.00 W/m2
22:29 10 °C 7.2 °C 1026 hPa Calm     81% 0 mm 0.00 W/m2
22:34 10 °C 6.7 °C 1026 hPa NNE 1.6 km/h 1.6 km/h 81% 0 mm 0.00 W/m2
22:39 10 °C 6.7 °C 1026 hPa NNE 3.2 km/h 3.2 km/h 81% 0 mm 0.00 W/m2
22:44 10 °C 6.7 °C 1026 hPa NNE 1.6 km/h 3.2 km/h 81% 0 mm 0.00 W/m2
22:49 10 °C 6.7 °C 1026 hPa NNE 3.2 km/h 3.2 km/h 81% 0 mm 0.00 W/m2
22:54 9.4 °C 6.7 °C 1026 hPa NNE 4.8 km/h 4.8 km/h 81% 0 mm 0.00 W/m2
22:59 9.4 °C 6.7 °C 1026 hPa NNE 3.2 km/h 4.8 km/h 82% 0 mm 0.00 W/m2
23:04 9.4 °C 6.7 °C 1026 hPa NNE 3.2 km/h 4.8 km/h 82% 0 mm 0.00 W/m2
23:09 9.4 °C 6.7 °C 1026 hPa NNE 3.2 km/h 4.8 km/h 83% 0 mm 0.00 W/m2
23:14 8.9 °C 6.7 °C 1026 hPa NE 4.8 km/h 4.8 km/h 83% 0 mm 0.00 W/m2
23:19 8.9 °C 6.1 °C 1026 hPa NNE 6.4 km/h 8 km/h 83% 0 mm 0.00 W/m2
23:24 8.9 °C 6.1 °C 1026 hPa NNE 8 km/h 8 km/h 84% 0 mm 0.00 W/m2
23:29 8.9 °C 6.1 °C 1026 hPa NNE 4.8 km/h 4.8 km/h 84% 0 mm 0.00 W/m2
23:34 8.9 °C 6.1 °C 1026 hPa NNE 6.4 km/h 6.4 km/h 84% 0 mm 0.00 W/m2
23:39 8.9 °C 6.7 °C 1026 hPa NE 3.2 km/h 4.8 km/h 85% 0 mm 0.00 W/m2
23:44 8.9 °C 6.1 °C 1026 hPa NE 6.4 km/h 6.4 km/h 85% 0 mm 0.00 W/m2
23:49 8.9 °C 6.1 °C 1026 hPa NE 4.8 km/h 6.4 km/h 85% 0 mm 0.00 W/m2
23:54 8.9 °C 6.1 °C 1026 hPa NE 4.8 km/h 4.8 km/h 85% 0 mm 0.00 W/m2
23:59 8.9 °C 6.1 °C 1026 hPa NE 4.8 km/h 4.8 km/h 85% 0 mm 0.00 W/m2
Villages of Bridgestone, Spring, TX USA
Compliments of Weather Underground - 4 mb